Felix-Klein-Gymnasium, Gttingen, 150m NN
Donnes mto: Actuelle Samstag, 22.07.2017 22:03
Date Horaire Temp. E. Hum. E. P.atmo. Pluie Vent Direction Direction Ensoleilleme P. de rose Temp au vent Rafales
22.07.2017 22:03 22,9 C 67 % 1009,7 hPa 0,0 mm 0,1 km/h (0 Bft) O-SO 244 0 min 16,4 C 22,9 C 3,2 km/h (1 Bft)
22.07.2017 21:15 24,6 C 59 % 1009,7 hPa 0,0 mm 0,2 km/h (0 Bft) NO 312 0 min 16,0 C 24,6 C 3,2 km/h (1 Bft)
22.07.2017 21:01 24,9 C 58 % 1009,5 hPa 0,0 mm 0,0 km/h (0 Bft) NO 312 46 min 16,1 C 24,9 C 3,2 km/h (1 Bft)
22.07.2017 20:15 25,2 C 56 % 1009,5 hPa 0,0 mm 4,4 km/h (1 Bft) NO 325 0 min 15,8 C 25,2 C 11,3 km/h (2 Bft)
22.07.2017 20:00 25,4 C 56 % 1009,5 hPa 0,0 mm 3,9 km/h (1 Bft) NO 313 0 min 16,0 C 25,4 C 12,9 km/h (3 Bft)
22.07.2017 19:30 25,3 C 59 % 1009,7 hPa 0,0 mm 5,0 km/h (1 Bft) NO 309 43 min 16,7 C 25,3 C 14,5 km/h (3 Bft)
22.07.2017 18:47 25,3 C 59 % 1009,6 hPa 0,0 mm 5,8 km/h (2 Bft) O 267 0 min 16,7 C 25,3 C 17,7 km/h (3 Bft)
22.07.2017 18:30 25,4 C 58 % 1009,4 hPa 0,0 mm 6,0 km/h (2 Bft) NO 320 0 min 16,5 C 25,4 C 16,1 km/h (3 Bft)
22.07.2017 17:45 26,7 C 54 % 1009,5 hPa 0,0 mm 7,4 km/h (2 Bft) N-NO 334 15 min 16,6 C 26,7 C 17,7 km/h (3 Bft)
22.07.2017 17:30 26,4 C 55 % 1009,5 hPa 0,0 mm 6,6 km/h (2 Bft) N-NO 336 45 min 16,6 C 26,4 C 17,7 km/h (3 Bft)
22.07.2017 16:45 28,1 C 50 % 1009,5 hPa 0,0 mm 4,6 km/h (1 Bft) NO 321 12 min 16,7 C 28,1 C 19,3 km/h (3 Bft)
22.07.2017 16:33 27,9 C 50 % 1009,5 hPa 0,0 mm 4,6 km/h (1 Bft) NO 304 0 min 16,5 C 27,9 C 14,5 km/h (3 Bft)
22.07.2017 15:45 27,2 C 54 % 1009,8 hPa 0,0 mm 3,1 km/h (1 Bft) O-NO 297 14 min 17,1 C 27,2 C 12,9 km/h (3 Bft)
22.07.2017 15:31 27,0 C 55 % 1009,8 hPa 0,0 mm 1,3 km/h (1 Bft) E-SE 116 0 min 17,2 C 27,0 C 9,7 km/h (2 Bft)
22.07.2017 14:45 25,7 C 60 % 1010,2 hPa 0,0 mm 1,0 km/h (0 Bft) NO 317 0 min 17,3 C 25,7 C 9,7 km/h (2 Bft)
22.07.2017 14:00 26,1 C 61 % 1010,6 hPa 0,0 mm 1,5 km/h (1 Bft) N-NO 347 43 min 18,0 C 26,1 C 11,3 km/h (2 Bft)
22.07.2017 13:17 25,9 C 61 % 1010,6 hPa 0,0 mm 1,7 km/h (1 Bft) NE 36 0 min 17,8 C 25,9 C 8,0 km/h (2 Bft)
22.07.2017 13:00 25,2 C 62 % 1010,7 hPa 0,0 mm 2,0 km/h (1 Bft) S-SO 192 14 min 17,4 C 25,2 C 6,4 km/h (2 Bft)
22.07.2017 12:46 24,6 C 65 % 1010,7 hPa 0,0 mm 1,4 km/h (1 Bft) O-SO 252 46 min 17,6 C 24,6 C 6,4 km/h (2 Bft)
22.07.2017 12:00 22,7 C 70 % 1010,7 hPa 0,0 mm 1,6 km/h (1 Bft) S 169 15 min 16,9 C 22,7 C 8,0 km/h (2 Bft)
22.07.2017 11:45 21,3 C 75 % 1010,8 hPa 0,0 mm 3,1 km/h (1 Bft) E 85 45 min 16,7 C 21,3 C 9,7 km/h (2 Bft)
22.07.2017 11:00 19,9 C 82 % 1010,9 hPa 0,0 mm 3,9 km/h (1 Bft) E 85 15 min 16,7 C 19,9 C 11,3 km/h (2 Bft)
22.07.2017 10:45 19,3 C 85 % 1011,0 hPa 0,0 mm 2,3 km/h (1 Bft) E-SE 123 15 min 16,7 C 19,3 C 9,7 km/h (2 Bft)
22.07.2017 10:30 18,8 C 88 % 1011,0 hPa 0,0 mm 1,7 km/h (1 Bft) S 186 0 min 16,8 C 18,8 C 8,0 km/h (2 Bft)
22.07.2017 10:15 18,5 C 90 % 1010,8 hPa 0,0 mm 1,8 km/h (1 Bft) O-SO 244 0 min 16,8 C 18,5 C 6,4 km/h (2 Bft)
22.07.2017 10:00 18,4 C 90 % 1010,9 hPa 0,0 mm 0,0 km/h (0 Bft) N 0 0 min 16,7 C 18,4 C 0,0 km/h (0 Bft)
22.07.2017 09:45 18,3 C 90 % 1010,7 hPa 0,0 mm 0,0 km/h (0 Bft) N-NO 337 0 min 16,6 C 18,3 C 8,0 km/h (2 Bft)
22.07.2017 09:30 18,4 C 89 % 1010,8 hPa 0,0 mm 1,6 km/h (1 Bft) N 360 0 min 16,6 C 18,4 C 6,4 km/h (2 Bft)
22.07.2017 09:15 18,6 C 89 % 1010,5 hPa 0,0 mm 0,0 km/h (0 Bft) O-NO 292 0 min 16,7 C 18,6 C 1,6 km/h (1 Bft)
22.07.2017 09:00 18,5 C 89 % 1010,3 hPa 0,0 mm 0,0 km/h (0 Bft) O 270 0 min 16,7 C 18,5 C 1,6 km/h (1 Bft)
22.07.2017 08:45 18,6 C 88 % 1010,5 hPa 0,0 mm 1,6 km/h (1 Bft) O-SO 247 0 min 16,6 C 18,6 C 6,4 km/h (2 Bft)
22.07.2017 08:30 18,6 C 87 % 1010,2 hPa 0,3 mm 3,2 km/h (1 Bft) E-NE 67 0 min 16,4 C 18,6 C 11,3 km/h (2 Bft)
22.07.2017 08:15 18,6 C 86 % 1009,9 hPa 0,0 mm 6,4 km/h (2 Bft) E 90 0 min 16,2 C 18,6 C 14,5 km/h (3 Bft)
22.07.2017 08:00 18,6 C 86 % 1009,9 hPa 0,0 mm 0,0 km/h (0 Bft) NE 45 0 min 16,2 C 18,6 C 6,4 km/h (2 Bft)
22.07.2017 07:45 18,5 C 86 % 1010,0 hPa 0,0 mm 1,6 km/h (1 Bft) NE 45 0 min 16,1 C 18,5 C 6,4 km/h (2 Bft)
22.07.2017 07:30 18,4 C 87 % 1010,0 hPa 0,0 mm 1,6 km/h (1 Bft) NE 45 0 min 16,2 C 18,4 C 8,0 km/h (2 Bft)
22.07.2017 07:15 18,5 C 91 % 1009,8 hPa 0,0 mm 0,0 km/h (0 Bft) O-SO 247 0 min 17,0 C 18,5 C 1,6 km/h (1 Bft)
22.07.2017 07:00 18,4 C 92 % 1009,9 hPa 0,0 mm 0,0 km/h (0 Bft) O-SO 247 0 min 17,1 C 18,4 C 1,6 km/h (1 Bft)
22.07.2017 06:45 18,4 C 90 % 1009,5 hPa 0,0 mm 0,0 km/h (0 Bft) O-SO 247 0 min 16,7 C 18,4 C 4,8 km/h (1 Bft)
22.07.2017 06:30 18,5 C 89 % 1009,5 hPa 0,0 mm 0,0 km/h (0 Bft) O-SO 247 0 min 16,7 C 18,5 C 3,2 km/h (1 Bft)
22.07.2017 06:15 18,8 C 87 % 1009,3 hPa 0,0 mm 0,0 km/h (0 Bft) O-SO 247 0 min 16,6 C 18,8 C 1,6 km/h (1 Bft)
22.07.2017 06:00 18,9 C 86 % 1009,4 hPa 0,8 mm 0,0 km/h (0 Bft) E 90 0 min 16,5 C 18,9 C 1,6 km/h (1 Bft)
22.07.2017 05:45 19,0 C 85 % 1009,3 hPa 0,0 mm 4,8 km/h (1 Bft) E 90 0 min 16,4 C 19,0 C 14,5 km/h (3 Bft)
22.07.2017 05:30 18,8 C 85 % 1009,1 hPa 0,0 mm 3,2 km/h (1 Bft) SE 135 0 min 16,2 C 18,8 C 8,0 km/h (2 Bft)
22.07.2017 05:15 18,3 C 85 % 1009,3 hPa 0,0 mm 3,2 km/h (1 Bft) E-SE 112 0 min 15,7 C 18,3 C 8,0 km/h (2 Bft)
22.07.2017 05:00 17,8 C 85 % 1009,5 hPa 0,0 mm 0,0 km/h (0 Bft) O 270 0 min 15,2 C 17,8 C 4,8 km/h (1 Bft)
22.07.2017 04:45 17,5 C 86 % 1009,6 hPa 0,0 mm 3,2 km/h (1 Bft) SO 225 0 min 15,1 C 17,5 C 11,3 km/h (2 Bft)
22.07.2017 04:30 16,9 C 89 % 1009,4 hPa 0,0 mm 8,0 km/h (2 Bft) N-NO 337 0 min 15,1 C 16,9 C 32,2 km/h (5 Bft)
22.07.2017 04:15 16,8 C 90 % 1009,1 hPa 0,0 mm 3,2 km/h (1 Bft) NO 315 0 min 15,1 C 16,8 C 20,9 km/h (4 Bft)
22.07.2017 04:00 16,9 C 89 % 1008,7 hPa 0,0 mm 0,0 km/h (0 Bft) N 0 0 min 15,1 C 16,9 C 0,0 km/h (0 Bft)
22.07.2017 03:45 16,9 C 89 % 1008,8 hPa 0,0 mm 0,0 km/h (0 Bft) N-NE 22 0 min 15,1 C 16,9 C 1,6 km/h (1 Bft)
22.07.2017 03:30 17,1 C 88 % 1008,8 hPa 0,0 mm 0,0 km/h (0 Bft) N-NE 22 0 min 15,1 C 17,1 C 1,6 km/h (1 Bft)
22.07.2017 03:15 17,2 C 88 % 1008,9 hPa 0,0 mm 0,0 km/h (0 Bft) N-NE 22 0 min 15,2 C 17,2 C 4,8 km/h (1 Bft)
22.07.2017 03:00 17,2 C 88 % 1008,8 hPa 0,0 mm 0,0 km/h (0 Bft) O-NO 292 0 min 15,2 C 17,2 C 1,6 km/h (1 Bft)
22.07.2017 02:45 17,3 C 88 % 1008,9 hPa 0,0 mm 0,0 km/h (0 Bft) N 0 0 min 15,3 C 17,3 C 0,0 km/h (0 Bft)
22.07.2017 02:30 17,3 C 88 % 1009,0 hPa 0,0 mm 0,0 km/h (0 Bft) N 0 0 min 15,3 C 17,3 C 0,0 km/h (0 Bft)
22.07.2017 02:15 17,2 C 88 % 1009,1 hPa 0,0 mm 0,0 km/h (0 Bft) N 0 0 min 15,2 C 17,2 C 0,0 km/h (0 Bft)
22.07.2017 02:00 17,1 C 87 % 1009,2 hPa 0,0 mm 0,0 km/h (0 Bft) N 0 0 min 14,9 C 17,1 C 0,0 km/h (0 Bft)
22.07.2017 01:45 17,1 C 87 % 1009,4 hPa 0,0 mm 0,0 km/h (0 Bft) N 0 0 min 14,9 C 17,1 C 0,0 km/h (0 Bft)
22.07.2017 01:30 17,1 C 88 % 1009,5 hPa 0,0 mm 0,0 km/h (0 Bft) O 270 0 min 15,1 C 17,1 C 3,2 km/h (1 Bft)
22.07.2017 01:15 17,2 C 88 % 1009,8 hPa 0,0 mm 1,6 km/h (1 Bft) O-NO 292 0 min 15,2 C 17,2 C 6,4 km/h (2 Bft)
22.07.2017 01:00 17,4 C 87 % 1009,6 hPa 0,0 mm 0,0 km/h (0 Bft) O 270 0 min 15,2 C 17,4 C 6,4 km/h (2 Bft)
22.07.2017 00:45 17,7 C 86 % 1009,4 hPa 0,0 mm 0,0 km/h (0 Bft) O 270 0 min 15,3 C 17,7 C 1,6 km/h (1 Bft)
22.07.2017 00:30 17,9 C 84 % 1009,2 hPa 0,0 mm 0,0 km/h (0 Bft) O 270 0 min 15,2 C 17,9 C 4,8 km/h (1 Bft)
22.07.2017 00:15 18,6 C 82 % 1009,3 hPa 0,0 mm 0,0 km/h (0 Bft) O 270 0 min 15,5 C 18,6 C 6,4 km/h (2 Bft)
22.07.2017 00:00 18,9 C 81 % 1009,1 hPa 0,0 mm 0,0 km/h (0 Bft) N 0 0 min 15,6 C 18,9 C 0,0 km/h (0 Bft)
21.07.2017 23:45 18,9 C 81 % 1009,1 hPa 0,0 mm 0,0 km/h (0 Bft) N 0 0 min 15,6 C 18,9 C 0,0 km/h (0 Bft)
21.07.2017 23:30 19,3 C 79 % 1009,4 hPa 0,0 mm 0,0 km/h (0 Bft) O 270 0 min 15,6 C 19,3 C 1,6 km/h (1 Bft)
21.07.2017 23:15 19,9 C 77 % 1009,6 hPa 0,0 mm 0,0 km/h (0 Bft) O-SO 247 0 min 15,7 C 19,9 C 4,8 km/h (1 Bft)
21.07.2017 23:00 20,8 C 75 % 1009,5 hPa 0,0 mm 0,0 km/h (0 Bft) N 0 0 min 16,2 C 20,8 C 0,0 km/h (0 Bft)
_ Min-Heure 04:15 16:33 04:00 - 23:00 - - - 01:45 04:15 23:00
Minimum _ 16,8 C 50 % 1008,7 hPa - 0,0 km/h (0 Bft) - - - 14,9 C 16,8 C 0,0 km/h (0 Bft)
_ Max-Heure 16:45 07:00 10:30 06:00 04:30 - - 12:46 14:00 16:45 04:30
Maximum _ 28,1 C 92 % 1011,0 hPa 0,8 mm 8,0 km/h
N-NO (2 Bft)
- - 46 min 18,0 C 28,1 C 32,2 km/h
N-NO (5 Bft)
Moyenne _ 21,5 C 74 % 1009,8 hPa #1,0 mm 1,8 km/h (1 Bft) NO - #6:08 h 16,3 C 21,5 C 7,4 km/h (2 Bft)